Time;durP1;ratioP1;P1;durP2;ratioP2;P2;SDS_P1;SDS_P2;PMS_P1;PMS_P2;Temp;Humidity;BMP_temperature;BMP_pressure;BME280_temperature;BME280_humidity;BME280_pressure;Samples;Min_cycle;Max_cycle;Signal;HPM_P1;HPM_P2
2023/07/03 00:00:23;;;;;;;9.75;4.22;;;;;;;17.89;51.85;99637.53;5128759;27;20226;-72
2023/07/03 00:02:52;;;;;;;7.00;4.70;;;;;;;17.85;52.29;99642.06;5131296;27;20198;-73
2023/07/03 00:05:23;;;;;;;6.65;3.95;;;;;;;17.79;52.49;99638.91;5130110;27;20539;-71
2023/07/03 00:07:52;;;;;;;6.32;3.90;;;;;;;17.75;52.68;99646.03;5124895;27;20536;-73
2023/07/03 00:10:22;;;;;;;7.43;3.92;;;;;;;17.73;52.99;99647.81;5127591;27;20200;-71
2023/07/03 00:12:50;;;;;;;6.40;4.07;;;;;;;17.73;52.90;99655.63;5128983;27;20238;-71
2023/07/03 00:15:20;;;;;;;6.93;4.03;;;;;;;17.69;53.09;99650.66;5126751;27;20203;-73
2023/07/03 00:17:48;;;;;;;6.60;4.43;;;;;;;17.64;53.20;99653.47;5122627;27;20299;-71
2023/07/03 00:20:16;;;;;;;9.63;4.10;;;;;;;17.58;53.26;99652.00;5126423;27;20194;-73
2023/07/03 00:22:46;;;;;;;7.90;4.50;;;;;;;17.57;53.59;99657.28;5132202;27;20278;-71
2023/07/03 00:25:15;;;;;;;8.50;4.07;;;;;;;17.50;53.82;99656.72;5131319;27;20666;-72
2023/07/03 00:27:44;;;;;;;6.35;4.40;;;;;;;17.49;53.97;99659.38;5131318;27;20588;-71
2023/07/03 00:30:15;;;;;;;9.77;4.80;;;;;;;17.48;54.08;99663.75;5128763;27;20547;-71
2023/07/03 00:32:43;;;;;;;5.95;4.38;;;;;;;17.46;53.87;99663.00;5126397;27;22517;-71
2023/07/03 00:35:11;;;;;;;8.88;4.85;;;;;;;17.43;54.21;99670.09;5131171;27;20231;-73
2023/07/03 00:37:39;;;;;;;9.20;4.15;;;;;;;17.39;54.42;99669.41;5132981;27;20218;-72
2023/07/03 00:40:10;;;;;;;8.13;4.63;;;;;;;17.31;54.69;99674.94;5133309;27;20745;-73
2023/07/03 00:42:38;;;;;;;5.40;4.82;;;;;;;17.30;54.94;99670.63;5133299;27;20203;-72
2023/07/03 00:45:11;;;;;;;10.05;4.80;;;;;;;17.28;54.81;99666.44;5128986;27;20204;-73
2023/07/03 00:47:39;;;;;;;6.07;4.63;;;;;;;17.29;54.97;99668.97;5123059;27;20655;-72
2023/07/03 00:50:08;;;;;;;6.25;4.47;;;;;;;17.29;55.00;99671.56;5125068;27;20206;-73
2023/07/03 00:52:36;;;;;;;10.63;4.50;;;;;;;17.27;54.72;99677.75;5126158;27;20222;-73
2023/07/03 00:55:04;;;;;;;9.10;4.97;;;;;;;17.17;54.93;99676.50;5124459;27;20199;-74
2023/07/03 00:57:32;;;;;;;7.60;5.15;;;;;;;17.18;55.20;99681.59;5126799;27;20203;-73
2023/07/03 01:00:00;;;;;;;6.65;5.00;;;;;;;17.17;55.22;99687.75;5126937;27;20627;-74
2023/07/03 01:02:35;;;;;;;6.97;4.45;;;;;;;17.16;55.23;99691.25;5127291;27;20274;-73
2023/07/03 01:05:10;;;;;;;10.60;5.18;;;;;;;17.14;55.34;99686.09;5131344;27;21104;-73
2023/07/03 01:07:40;;;;;;;8.40;4.65;;;;;;;17.08;55.43;99685.53;5131150;27;20714;-72
2023/07/03 01:10:12;;;;;;;7.38;4.25;;;;;;;17.02;55.58;99681.44;5128298;27;20722;-72
2023/07/03 01:12:42;;;;;;;5.85;4.53;;;;;;;17.02;55.63;99686.66;5128339;27;20225;-72
2023/07/03 01:15:15;;;;;;;9.55;5.32;;;;;;;16.97;55.73;99688.59;5128961;27;20264;-71
2023/07/03 01:17:48;;;;;;;8.23;4.90;;;;;;;16.96;55.83;99683.47;5127439;27;20199;-71
2023/07/03 01:20:18;;;;;;;9.70;5.20;;;;;;;16.88;56.17;99684.66;5121866;27;20207;-73
2023/07/03 01:22:53;;;;;;;8.38;4.93;;;;;;;16.85;56.30;99679.56;5126127;27;20291;-72
2023/07/03 01:25:24;;;;;;;8.80;5.00;;;;;;;16.82;56.44;99689.25;5129624;27;20228;-73
2023/07/03 01:27:53;;;;;;;8.00;4.65;;;;;;;16.79;56.50;99686.78;5129700;27;20209;-72
2023/07/03 01:30:22;;;;;;;8.57;5.60;;;;;;;16.79;56.57;99682.47;5129983;27;20203;-72
2023/07/03 01:32:54;;;;;;;8.02;4.50;;;;;;;16.78;56.56;99682.50;5127171;27;20218;-72
2023/07/03 01:35:24;;;;;;;8.52;4.68;;;;;;;16.74;56.56;99681.78;5125788;27;20813;-73
2023/07/03 01:37:58;;;;;;;6.85;4.85;;;;;;;16.75;56.52;99688.69;5129342;27;20203;-73
2023/07/03 01:40:28;;;;;;;8.18;4.68;;;;;;;16.77;56.29;99683.44;5121467;27;20291;-72
2023/07/03 01:42:58;;;;;;;8.68;4.35;;;;;;;16.78;56.16;99693.75;5123264;27;20661;-73
2023/07/03 01:45:26;;;;;;;9.65;5.05;;;;;;;16.75;56.28;99688.69;5126171;27;20203;-72
2023/07/03 01:47:55;;;;;;;11.40;4.95;;;;;;;16.67;56.18;99686.38;5128585;27;20233;-72
2023/07/03 01:50:29;;;;;;;7.68;4.78;;;;;;;16.62;56.50;99697.91;5124510;27;20325;-72
2023/07/03 01:53:03;;;;;;;7.82;5.38;;;;;;;16.57;56.67;99699.81;5127175;27;20218;-73
2023/07/03 01:55:42;;;;;;;11.18;6.00;;;;;;;16.52;56.95;99693.97;5120432;27;20195;-72
2023/07/03 01:58:19;;;;;;;10.20;6.00;;;;;;;16.51;56.83;99695.75;5125760;27;20544;-74
2023/07/03 02:00:50;;;;;;;12.30;5.40;;;;;;;16.51;57.00;99697.50;5126163;27;20207;-72
2023/07/03 02:03:24;;;;;;;10.15;5.47;;;;;;;16.48;57.24;99700.22;5125666;27;20335;-72
2023/07/03 02:05:56;;;;;;;13.30;5.25;;;;;;;16.46;57.26;99696.81;5130286;27;20292;-71
2023/07/03 02:08:26;;;;;;;7.85;5.05;;;;;;;16.43;57.43;99698.66;5124355;27;20546;-72
2023/07/03 02:10:57;;;;;;;6.90;5.20;;;;;;;16.39;57.65;99693.66;5128230;27;20234;-73
2023/07/03 02:13:25;;;;;;;9.07;4.60;;;;;;;16.40;57.57;99700.53;5122500;27;20216;-73
2023/07/03 02:15:53;;;;;;;8.73;5.75;;;;;;;16.38;57.81;99702.34;5128546;27;20601;-72
2023/07/03 02:18:23;;;;;;;10.43;5.00;;;;;;;16.39;57.62;99701.47;5130874;27;21378;-72
2023/07/03 02:20:51;;;;;;;8.85;5.28;;;;;;;16.37;57.74;99706.69;5134788;27;20256;-73
2023/07/03 02:23:19;;;;;;;10.63;5.40;;;;;;;16.37;57.48;99701.50;5135401;27;20603;-72
2023/07/03 02:25:48;;;;;;;11.98;5.65;;;;;;;16.38;57.69;99710.16;5129192;27;20236;-72
2023/07/03 02:28:17;;;;;;;6.55;5.05;;;;;;;16.34;57.75;99709.41;5128839;27;20203;-71
2023/07/03 02:30:46;;;;;;;8.27;5.38;;;;;;;16.28;57.92;99714.06;5128773;27;20203;-74
2023/07/03 02:33:14;;;;;;;12.07;5.47;;;;;;;16.23;58.16;99711.59;5134076;27;20230;-72
2023/07/03 02:35:42;;;;;;;9.65;5.25;;;;;;;16.14;58.31;99696.41;5135188;27;20195;-73
2023/07/03 02:38:11;;;;;;;8.93;5.65;;;;;;;16.18;58.21;99710.97;5134074;27;20199;-72
2023/07/03 02:40:39;;;;;;;9.40;5.38;;;;;;;16.18;58.24;99717.00;5133560;27;20235;-72
2023/07/03 02:43:07;;;;;;;7.10;5.07;;;;;;;16.14;58.57;99717.19;5135409;27;20621;-72
2023/07/03 02:45:37;;;;;;;9.30;5.72;;;;;;;16.13;58.73;99720.72;5129610;27;20676;-72
2023/07/03 02:48:08;;;;;;;8.75;5.40;;;;;;;16.10;58.60;99716.47;5132447;27;20240;-72
2023/07/03 02:50:36;;;;;;;7.27;5.17;;;;;;;16.09;58.95;99713.91;5132389;27;20604;-72
2023/07/03 02:53:04;;;;;;;7.25;5.28;;;;;;;16.05;58.67;99714.94;5133479;27;20203;-74
2023/07/03 02:55:32;;;;;;;6.87;5.17;;;;;;;16.04;59.00;99716.69;5126993;27;20296;-71
2023/07/03 02:58:01;;;;;;;8.95;5.40;;;;;;;16.06;58.49;99724.44;5130206;27;20203;-72
2023/07/03 03:00:29;;;;;;;9.48;5.85;;;;;;;16.07;58.69;99726.13;5131473;27;20195;-72
2023/07/03 03:02:59;;;;;;;11.30;5.78;;;;;;;16.10;58.61;99728.63;5134214;27;20250;-71
2023/07/03 03:05:27;;;;;;;9.55;5.82;;;;;;;16.10;58.65;99733.81;5129562;27;20200;-71
2023/07/03 03:07:55;;;;;;;10.70;5.72;;;;;;;16.08;58.85;99728.66;5130176;27;20195;-73
2023/07/03 03:10:23;;;;;;;8.77;5.10;;;;;;;16.07;58.17;99726.13;5126962;27;20203;-73
2023/07/03 03:12:51;;;;;;;9.63;5.40;;;;;;;16.11;58.42;99730.31;5130230;27;20227;-73
2023/07/03 03:15:20;;;;;;;10.60;6.10;;;;;;;16.05;58.22;99733.13;5135854;27;20582;-73
2023/07/03 03:17:48;;;;;;;8.35;5.85;;;;;;;16.05;58.16;99735.72;5128066;27;20198;-73
2023/07/03 03:20:17;;;;;;;7.22;5.53;;;;;;;16.05;58.28;99735.72;5132258;27;20281;-73
2023/07/03 03:22:45;;;;;;;9.23;5.72;;;;;;;16.06;57.78;99734.84;5130866;27;20626;-73
2023/07/03 03:25:13;;;;;;;15.25;5.78;;;;;;;16.04;57.85;99737.47;5129512;27;20199;-74
2023/07/03 03:27:41;;;;;;;9.00;5.27;;;;;;;15.96;58.32;99720.50;5127786;27;20214;-73
2023/07/03 03:30:10;;;;;;;9.07;5.50;;;;;;;16.03;57.96;99732.34;5126485;27;20203;-73
2023/07/03 03:32:38;;;;;;;10.32;5.53;;;;;;;16.00;58.32;99725.53;5128182;27;20252;-73
2023/07/03 03:35:08;;;;;;;7.97;5.57;;;;;;;16.05;57.75;99736.56;5125868;27;20631;-73
2023/07/03 03:37:37;;;;;;;9.27;5.68;;;;;;;16.09;58.01;99745.97;5129763;27;20203;-73
2023/07/03 03:40:09;;;;;;;10.88;5.97;;;;;;;16.12;57.46;99744.97;5126584;27;20278;-71
2023/07/03 03:42:37;;;;;;;9.35;5.50;;;;;;;16.15;57.61;99744.88;5127829;27;20913;-73
2023/07/03 03:45:06;;;;;;;10.02;5.55;;;;;;;16.18;57.53;99745.59;5126688;27;20650;-71
2023/07/03 03:47:34;;;;;;;9.10;5.88;;;;;;;16.20;57.57;99745.56;5127197;27;20213;-72
2023/07/03 03:50:03;;;;;;;11.07;5.18;;;;;;;16.24;57.24;99738.44;5128083;27;20263;-70
2023/07/03 03:52:31;;;;;;;12.18;5.40;;;;;;;16.29;57.06;99734.78;5126950;27;20203;-72
2023/07/03 03:55:00;;;;;;;8.10;5.10;;;;;;;16.31;56.61;99730.38;5127618;27;20246;-72
2023/07/03 03:57:28;;;;;;;10.57;5.80;;;;;;;16.34;56.21;99735.41;5131288;27;20191;-72
2023/07/03 03:59:56;;;;;;;13.13;5.28;;;;;;;16.35;56.17;99731.94;5130659;27;20267;-73
2023/07/03 04:02:24;;;;;;;12.35;5.82;;;;;;;16.36;56.29;99732.78;5127132;27;20244;-73
2023/07/03 04:04:52;;;;;;;7.50;5.60;;;;;;;16.36;56.17;99728.41;5125932;27;20195;-71
2023/07/03 04:07:20;;;;;;;8.35;5.90;;;;;;;16.38;56.04;99737.00;5130874;27;20207;-71
2023/07/03 04:09:48;;;;;;;12.18;5.60;;;;;;;16.42;56.35;99746.38;5127153;27;20199;-73
2023/07/03 04:12:18;;;;;;;10.82;5.78;;;;;;;16.50;56.13;99737.44;5131160;27;20564;-72
2023/07/03 04:14:46;;;;;;;9.38;6.20;;;;;;;16.51;55.83;99739.13;5131629;27;20207;-73
2023/07/03 04:17:14;;;;;;;9.25;5.75;;;;;;;16.51;55.81;99744.31;5133418;27;20592;-72
2023/07/03 04:19:42;;;;;;;9.32;5.55;;;;;;;16.54;56.02;99731.19;5130844;27;20199;-72
2023/07/03 04:22:10;;;;;;;11.02;5.82;;;;;;;16.60;55.64;99736.13;5131359;27;20583;-72
2023/07/03 04:24:38;;;;;;;9.10;6.13;;;;;;;16.66;55.39;99731.50;5130193;27;20208;-73
2023/07/03 04:27:08;;;;;;;10.93;5.80;;;;;;;16.74;54.67;99733.81;5131730;27;20252;-72
2023/07/03 04:29:37;;;;;;;9.93;5.75;;;;;;;16.80;54.60;99732.75;5132115;27;20203;-72
2023/07/03 04:32:06;;;;;;;12.77;5.50;;;;;;;16.87;54.39;99736.78;5131915;27;20207;-72
2023/07/03 04:34:34;;;;;;;9.95;6.05;;;;;;;16.92;53.99;99731.38;5132946;27;20223;-72
2023/07/03 04:37:03;;;;;;;9.98;5.75;;;;;;;16.96;53.51;99728.56;5130218;27;20290;-72
2023/07/03 04:39:31;;;;;;;9.70;5.90;;;;;;;16.97;53.23;99726.78;5128905;27;20210;-72
2023/07/03 04:41:59;;;;;;;11.43;6.10;;;;;;;17.06;53.32;99734.22;5136822;27;20313;-71
2023/07/03 04:44:28;;;;;;;10.50;6.18;;;;;;;17.18;52.99;99733.69;5131913;27;20326;-72
2023/07/03 04:46:57;;;;;;;9.52;5.57;;;;;;;17.31;52.64;99734.84;5129114;27;20231;-72
2023/07/03 04:49:26;;;;;;;11.25;5.72;;;;;;;17.45;52.00;99731.59;5133060;27;20203;-73
2023/07/03 04:51:54;;;;;;;9.57;4.97;;;;;;;17.58;51.60;99748.38;5127527;27;20721;-74
2023/07/03 04:54:23;;;;;;;6.32;4.97;;;;;;;17.74;51.76;99740.72;5130723;27;20195;-72
2023/07/03 04:56:51;;;;;;;7.53;5.00;;;;;;;17.92;51.24;99735.59;5132775;27;20658;-74
2023/07/03 04:59:19;;;;;;;9.43;5.53;;;;;;;18.09;50.21;99741.72;5131359;27;20194;-72
2023/07/03 05:01:47;;;;;;;12.35;5.55;;;;;;;18.30;50.09;99747.69;5122452;27;20191;-74
2023/07/03 05:04:17;;;;;;;10.05;5.10;;;;;;;18.44;49.54;99740.94;5131729;27;20206;-72
2023/07/03 05:06:46;;;;;;;10.88;5.95;;;;;;;18.53;48.58;99735.28;5133551;27;20203;-71
2023/07/03 05:09:14;;;;;;;12.75;5.43;;;;;;;18.60;48.55;99747.09;5132972;27;20206;-71
2023/07/03 05:11:42;;;;;;;6.90;4.65;;;;;;;18.71;48.04;99744.84;5134742;27;20195;-75
2023/07/03 05:14:10;;;;;;;14.38;5.13;;;;;;;18.85;47.46;99746.72;5134905;27;20207;-76
2023/07/03 05:16:38;;;;;;;12.73;5.18;;;;;;;18.98;47.13;99757.41;5126288;27;20230;-73
2023/07/03 05:19:06;;;;;;;8.93;4.90;;;;;;;19.06;46.63;99755.25;5129656;27;20205;-72
2023/07/03 05:21:36;;;;;;;10.68;5.00;;;;;;;19.22;46.54;99756.16;5134271;27;20201;-71
2023/07/03 05:24:04;;;;;;;8.77;5.38;;;;;;;19.36;46.26;99754.59;5128385;27;20194;-72
2023/07/03 05:26:32;;;;;;;7.68;4.93;;;;;;;19.51;45.92;99759.00;5130008;27;20199;-73
2023/07/03 05:29:00;;;;;;;11.82;4.80;;;;;;;19.69;45.85;99747.59;5128347;27;20275;-74
2023/07/03 05:31:28;;;;;;;9.40;5.20;;;;;;;19.98;45.45;99753.84;5129000;27;20275;-74
2023/07/03 05:33:56;;;;;;;8.55;5.00;;;;;;;20.22;44.72;99750.81;5124584;27;20248;-73
2023/07/03 05:36:24;;;;;;;9.13;4.65;;;;;;;20.35;43.74;99749.19;5126233;27;20219;-73
2023/07/03 05:38:54;;;;;;;6.95;4.53;;;;;;;20.37;42.64;99749.97;5127536;27;20270;-74
2023/07/03 05:41:22;;;;;;;8.20;4.90;;;;;;;20.48;42.08;99749.34;5132782;27;20234;-74
2023/07/03 05:43:50;;;;;;;9.13;4.80;;;;;;;20.65;42.16;99754.47;5128252;27;20629;-74
2023/07/03 05:46:18;;;;;;;9.10;4.15;;;;;;;20.90;41.96;99753.88;5126791;27;20213;-75
2023/07/03 05:48:47;;;;;;;7.28;4.20;;;;;;;21.19;40.86;99761.81;5122706;27;20654;-74
2023/07/03 05:51:15;;;;;;;6.85;4.15;;;;;;;21.45;40.39;99771.56;5125158;27;20665;-73
2023/07/03 05:53:43;;;;;;;6.82;4.07;;;;;;;21.62;39.44;99773.19;5128514;27;20203;-73
2023/07/03 05:56:12;;;;;;;5.55;4.05;;;;;;;21.70;38.61;99765.66;5127585;27;20211;-74
2023/07/03 05:58:40;;;;;;;8.50;4.57;;;;;;;21.93;38.92;99766.00;5130047;27;20203;-73
2023/07/03 06:01:08;;;;;;;11.18;4.78;;;;;;;22.21;38.54;99780.06;5130976;27;20283;-73
2023/07/03 06:03:36;;;;;;;10.27;4.30;;;;;;;22.52;37.05;99781.53;5127993;27;20207;-72
2023/07/03 06:06:06;;;;;;;11.00;4.72;;;;;;;22.94;36.88;99785.78;5127374;27;20203;-74
2023/07/03 06:08:34;;;;;;;10.10;4.20;;;;;;;23.33;35.86;99786.63;5138137;27;20207;-73
2023/07/03 06:11:02;;;;;;;8.80;4.60;;;;;;;23.62;35.03;99795.97;5127233;27;20210;-74
2023/07/03 06:13:31;;;;;;;9.23;4.53;;;;;;;23.90;34.73;99788.81;5129408;27;20511;-74
2023/07/03 06:16:05;;;;;;;7.13;4.47;;;;;;;24.32;34.51;99786.66;5130437;27;20219;-74
2023/07/03 06:18:33;;;;;;;8.18;3.92;;;;;;;24.67;33.82;99796.44;5129438;27;20624;-74
2023/07/03 06:21:02;;;;;;;7.10;4.28;;;;;;;25.06;33.28;99788.16;5147747;27;20202;-73
2023/07/03 06:23:30;;;;;;;7.03;4.45;;;;;;;25.40;32.10;99790.06;5132758;27;20214;-73
2023/07/03 06:25:59;;;;;;;9.07;4.78;;;;;;;25.59;31.85;99790.31;5135454;27;20706;-73
2023/07/03 06:28:27;;;;;;;8.10;4.30;;;;;;;25.42;31.53;99791.63;5136622;27;20200;-75
2023/07/03 06:30:56;;;;;;;7.57;4.15;;;;;;;25.48;31.38;99793.78;5136988;27;20250;-75
2023/07/03 06:33:24;;;;;;;8.27;4.45;;;;;;;25.76;31.03;99795.09;5136001;27;20271;-74
2023/07/03 06:35:52;;;;;;;8.40;4.35;;;;;;;26.33;30.38;99784.47;5137123;27;20238;-75
2023/07/03 06:38:21;;;;;;;7.65;4.00;;;;;;;26.60;28.21;99797.28;5135217;27;20199;-74
2023/07/03 06:40:57;;;;;;;9.25;4.32;;;;;;;26.54;28.95;99792.47;5135278;27;20242;-74
2023/07/03 06:43:25;;;;;;;7.78;3.90;;;;;;;26.84;29.16;99792.56;5136219;27;20205;-74
2023/07/03 06:45:53;;;;;;;10.43;4.45;;;;;;;26.84;29.04;99799.66;5136477;27;20195;-73
2023/07/03 06:48:26;;;;;;;7.07;3.78;;;;;;;26.69;28.95;99799.13;5132604;27;20699;-75
2023/07/03 06:51:02;;;;;;;7.60;4.25;;;;;;;26.32;29.45;99794.19;5132352;27;20203;-73
2023/07/03 06:53:30;;;;;;;8.55;4.43;;;;;;;26.43;29.42;99791.50;5132412;27;20689;-73
2023/07/03 06:55:59;;;;;;;8.90;4.88;;;;;;;26.34;28.48;99802.84;5129444;27;20233;-73
2023/07/03 06:58:28;;;;;;;9.68;4.53;;;;;;;25.70;29.50;99803.53;5132054;27;20264;-72
2023/07/03 07:00:57;;;;;;;13.60;4.90;;;;;;;25.52;30.44;99805.78;5122834;27;20227;-68
2023/07/03 07:03:26;;;;;;;7.22;4.57;;;;;;;25.77;29.36;99801.22;5130456;27;20211;-68
2023/07/03 07:05:55;;;;;;;9.20;4.75;;;;;;;25.96;30.17;99798.00;5127373;27;20575;-75
2023/07/03 07:08:24;;;;;;;9.70;4.68;;;;;;;26.52;29.35;99795.25;5137140;27;20600;-73
2023/07/03 07:10:52;;;;;;;6.40;4.35;;;;;;;26.89;27.53;99797.50;5124111;27;20289;-72
2023/07/03 07:13:21;;;;;;;7.43;4.30;;;;;;;26.91;27.11;99793.75;5125100;27;20215;-70
2023/07/03 07:15:49;;;;;;;8.80;4.75;;;;;;;26.96;27.23;99799.50;5130860;27;20792;-75
2023/07/03 07:18:18;;;;;;;11.00;4.45;;;;;;;26.53;27.36;99796.09;5130185;27;20209;-74
2023/07/03 07:20:47;;;;;;;5.88;4.13;;;;;;;26.14;28.00;99804.47;5128854;27;20199;-72
2023/07/03 07:23:15;;;;;;;8.60;4.25;;;;;;;26.36;27.42;99787.69;5130344;27;20615;-72
2023/07/03 07:25:52;;;;;;;8.88;4.38;;;;;;;26.48;26.46;99799.13;5132723;27;20409;-71
2023/07/03 07:28:23;;;;;;;8.05;4.47;;;;;;;26.43;25.95;99804.72;5131784;27;20207;-69
2023/07/03 07:30:51;;;;;;;7.10;4.30;;;;;;;26.26;27.02;99794.72;5133425;27;20652;-70
2023/07/03 07:33:20;;;;;;;5.53;3.70;;;;;;;26.34;26.25;99797.56;5134572;27;20206;-74
2023/07/03 07:35:51;;;;;;;6.13;3.67;;;;;;;26.48;26.67;99799.94;5132925;27;20199;-70
2023/07/03 07:38:21;;;;;;;7.82;4.13;;;;;;;26.31;25.47;99796.97;5129168;27;20603;-71
2023/07/03 07:40:50;;;;;;;9.80;4.28;;;;;;;26.35;25.72;99796.59;5131490;27;20581;-70
2023/07/03 07:43:18;;;;;;;7.68;4.47;;;;;;;25.98;25.54;99807.47;5133276;27;20290;-71
2023/07/03 07:45:53;;;;;;;6.55;4.22;;;;;;;25.87;26.71;99794.28;5134445;27;20610;-70
2023/07/03 07:48:21;;;;;;;7.65;4.18;;;;;;;25.38;26.14;99786.72;5129565;27;20293;-70
2023/07/03 07:50:53;;;;;;;5.85;3.67;;;;;;;25.18;26.16;99794.34;5131411;27;20280;-70
2023/07/03 07:53:21;;;;;;;6.78;3.15;;;;;;;24.80;24.92;99789.31;5131908;27;20291;-70
2023/07/03 07:55:50;;;;;;;7.35;3.90;;;;;;;24.70;25.08;99783.88;5130878;27;20605;-70
2023/07/03 07:58:19;;;;;;;11.45;4.13;;;;;;;24.82;25.64;99790.88;5133579;27;20238;-71
2023/07/03 08:00:52;;;;;;;6.88;3.67;;;;;;;24.90;25.20;99786.81;5139798;27;20213;-72
2023/07/03 08:03:20;;;;;;;6.43;3.70;;;;;;;24.70;24.96;99802.31;5133273;27;20857;-71
2023/07/03 08:05:48;;;;;;;4.60;3.50;;;;;;;24.37;25.53;99789.78;5140429;27;20289;-70
2023/07/03 08:08:18;;;;;;;6.82;3.22;;;;;;;24.09;25.58;99791.81;5134702;27;20560;-70
2023/07/03 08:10:53;;;;;;;4.72;3.30;;;;;;;23.94;26.07;99795.53;5131967;27;20548;-72
2023/07/03 08:13:22;;;;;;;5.45;3.20;;;;;;;23.76;26.19;99770.53;5133523;27;20214;-71
2023/07/03 08:15:51;;;;;;;7.47;3.13;;;;;;;23.68;25.57;99796.53;5132973;27;20617;-71
2023/07/03 08:18:19;;;;;;;6.15;3.22;;;;;;;23.51;25.65;99782.72;5132495;27;20226;-71
2023/07/03 08:20:49;;;;;;;4.97;3.20;;;;;;;23.56;26.92;99795.56;5145952;27;20306;-70
2023/07/03 08:23:19;;;;;;;4.97;2.75;;;;;;;23.59;26.91;99793.53;5132488;27;20199;-70
2023/07/03 08:25:49;;;;;;;5.82;3.53;;;;;;;23.49;27.55;99797.78;5136784;27;20196;-70
2023/07/03 08:28:18;;;;;;;7.68;4.22;;;;;;;23.55;27.59;99802.59;5140788;27;20203;-71
2023/07/03 08:30:47;;;;;;;8.15;3.47;;;;;;;23.62;27.91;99795.97;5131958;27;20199;-71
2023/07/03 08:33:16;;;;;;;5.80;3.58;;;;;;;23.60;28.26;99803.16;5124831;27;20199;-72
2023/07/03 08:35:45;;;;;;;8.13;4.47;;;;;;;23.67;28.37;99797.47;5131257;27;20238;-70
2023/07/03 08:38:17;;;;;;;5.88;3.42;;;;;;;23.65;28.01;99786.19;5131788;27;20222;-75
2023/07/03 08:40:46;;;;;;;7.30;3.85;;;;;;;23.49;28.27;99782.00;5123572;27;20235;-73
2023/07/03 08:43:20;;;;;;;7.40;4.10;;;;;;;23.44;28.72;99786.72;5124363;27;20205;-72
2023/07/03 08:45:50;;;;;;;7.85;3.67;;;;;;;23.62;29.21;99798.59;5130886;27;20680;-65
2023/07/03 08:48:23;;;;;;;11.02;4.45;;;;;;;23.81;28.35;99781.56;5129079;27;20733;-67
2023/07/03 08:50:53;;;;;;;10.88;4.10;;;;;;;23.95;28.27;99793.75;5124914;27;20210;-69
2023/07/03 08:53:29;;;;;;;10.85;3.60;;;;;;;24.13;28.24;99786.31;5128500;27;20200;-71
2023/07/03 08:56:00;;;;;;;6.80;3.70;;;;;;;24.25;28.23;99795.97;5128680;27;20196;-69
2023/07/03 08:58:28;;;;;;;10.88;4.07;;;;;;;24.11;28.51;99784.63;5127133;27;20207;-70
2023/07/03 09:01:08;;;;;;;6.10;3.85;;;;;;;24.02;28.54;99792.34;5130440;27;20568;-71
2023/07/03 09:03:48;;;;;;;11.15;4.50;;;;;;;23.94;28.76;99784.19;5130266;27;20224;-70
2023/07/03 09:06:22;;;;;;;8.82;4.55;;;;;;;24.05;29.07;99790.34;5131551;27;20433;-72
2023/07/03 09:09:03;;;;;;;7.40;4.45;;;;;;;24.20;28.88;99792.84;5134179;27;20630;-71
2023/07/03 09:11:38;;;;;;;8.40;4.22;;;;;;;24.11;28.92;99789.06;5131880;27;20205;-70
2023/07/03 09:14:13;;;;;;;8.02;4.30;;;;;;;24.00;29.10;99789.81;5120266;27;20557;-70
2023/07/03 09:16:44;;;;;;;8.75;4.65;;;;;;;24.14;28.96;99803.78;5131645;27;20317;-71
2023/07/03 09:19:20;;;;;;;8.05;4.32;;;;;;;24.20;29.06;99790.19;5132291;27;20867;-71
2023/07/03 09:21:52;;;;;;;8.65;4.68;;;;;;;24.32;29.01;99799.84;5129284;27;20210;-71
2023/07/03 09:24:26;;;;;;;6.50;4.40;;;;;;;24.11;28.58;99787.25;5130682;27;20203;-70
2023/07/03 09:27:08;;;;;;;8.75;4.68;;;;;;;24.00;29.07;99796.88;5134378;27;20601;-71
2023/07/03 09:29:38;;;;;;;8.23;4.53;;;;;;;23.94;29.50;99795.53;5130872;27;20504;-66
2023/07/03 09:32:07;;;;;;;8.27;4.20;;;;;;;23.92;29.78;99789.53;5128428;27;20203;-64
2023/07/03 09:35:06;;;;;;;8.00;4.35;;;;;;;23.89;30.51;99795.00;5135629;27;20203;-60
2023/07/03 09:37:37;;;;;;;7.90;4.40;;;;;;;23.88;30.53;99785.44;5052354;28;20311;-67
2023/07/03 09:40:12;;;;;;;7.72;4.53;;;;;;;23.76;30.36;99779.25;5107365;27;20294;-68
2023/07/03 09:42:42;;;;;;;8.82;5.18;;;;;;;23.63;29.82;99794.19;5131991;27;20255;-64
2023/07/03 09:45:16;;;;;;;8.40;4.72;;;;;;;23.52;30.02;99780.94;5133491;27;20203;-64
2023/07/03 09:47:48;;;;;;;7.32;4.22;;;;;;;23.55;30.46;99764.94;5135802;27;20332;-63
2023/07/03 09:50:24;;;;;;;8.82;4.97;;;;;;;23.74;30.83;99770.63;5137511;27;20231;-64
2023/07/03 09:52:55;;;;;;;10.02;4.88;;;;;;;23.85;30.96;99760.19;5133042;27;20293;-63
2023/07/03 09:55:37;;;;;;;10.85;5.18;;;;;;;23.97;30.98;99776.91;5133381;27;20203;-69
2023/07/03 09:58:13;;;;;;;8.02;4.70;;;;;;;23.94;30.59;99771.84;5130747;27;20583;-69
2023/07/03 10:00:47;;;;;;;8.07;5.10;;;;;;;24.08;30.58;99766.44;5129320;27;20207;-69
2023/07/03 10:03:26;;;;;;;8.32;4.90;;;;;;;24.29;29.90;99773.72;5132505;27;20207;-70
2023/07/03 10:06:11;;;;;;;7.97;4.60;;;;;;;24.21;29.16;99763.75;5127175;27;20563;-70
2023/07/03 10:08:46;;;;;;;7.55;4.55;;;;;;;24.00;29.06;99770.56;5131786;27;20207;-71
2023/07/03 10:11:21;;;;;;;8.30;4.63;;;;;;;23.78;29.50;99776.50;5129857;27;20191;-71
2023/07/03 10:13:52;;;;;;;9.20;4.68;;;;;;;23.79;29.32;99757.16;5124367;27;20234;-69
2023/07/03 10:16:24;;;;;;;8.70;4.50;;;;;;;23.88;29.63;99767.00;5133481;27;20203;-72
2023/07/03 10:18:57;;;;;;;7.65;4.63;;;;;;;24.02;29.99;99764.25;5126633;27;20661;-71
2023/07/03 10:21:25;;;;;;;10.02;4.78;;;;;;;24.22;30.37;99754.88;5128316;27;20673;-71
2023/07/03 10:23:54;;;;;;;6.88;4.47;;;;;;;24.42;30.29;99756.13;5135791;27;20291;-72
2023/07/03 10:26:28;;;;;;;7.60;4.78;;;;;;;24.40;29.08;99768.53;5135128;27;20213;-70
2023/07/03 10:29:04;;;;;;;9.30;5.03;;;;;;;24.25;29.09;99764.38;5131182;27;20203;-71
2023/07/03 10:31:39;;;;;;;9.23;5.30;;;;;;;24.22;29.37;99768.06;5123056;27;20199;-70
2023/07/03 10:34:17;;;;;;;8.65;5.32;;;;;;;24.32;29.67;99760.34;5130544;27;20663;-71
2023/07/03 10:36:49;;;;;;;11.40;5.57;;;;;;;24.36;29.71;99767.06;5130189;27;20666;-71
2023/07/03 10:39:22;;;;;;;8.68;5.32;;;;;;;24.55;29.97;99751.59;5123957;27;20230;-71
2023/07/03 10:41:57;;;;;;;10.50;4.75;;;;;;;24.76;28.72;99750.97;5129877;27;20461;-71
2023/07/03 10:44:30;;;;;;;7.45;4.28;;;;;;;24.93;27.98;99749.66;5130952;27;20202;-73
2023/07/03 10:47:01;;;;;;;10.07;5.13;;;;;;;25.16;28.13;99750.59;5134107;27;20203;-73
2023/07/03 10:49:32;;;;;;;12.15;5.57;;;;;;;25.21;27.75;99754.56;5127199;27;20208;-71
2023/07/03 10:52:12;;;;;;;9.85;5.20;;;;;;;25.24;27.53;99742.94;5121214;27;20630;-73
2023/07/03 10:54:46;;;;;;;12.40;5.38;;;;;;;25.15;27.82;99738.34;5134550;27;20199;-72
2023/07/03 10:57:23;;;;;;;8.88;5.20;;;;;;;25.06;27.54;99756.53;5128948;27;20267;-71
2023/07/03 10:59:59;;;;;;;6.72;5.10;;;;;;;25.11;28.07;99747.47;5134675;27;20195;-72
2023/07/03 11:02:35;;;;;;;6.90;4.35;;;;;;;25.24;27.69;99738.50;5131000;27;20297;-72
2023/07/03 11:05:13;;;;;;;9.88;4.78;;;;;;;25.37;27.45;99743.66;5134012;27;20218;-72
2023/07/03 11:07:50;;;;;;;8.68;4.95;;;;;;;25.25;27.59;99732.25;5132661;27;20199;-70
2023/07/03 11:10:24;;;;;;;7.85;5.05;;;;;;;24.90;27.92;99753.41;5127142;27;20290;-72
2023/07/03 11:13:01;;;;;;;8.20;4.72;;;;;;;24.45;28.28;99745.34;5124136;27;20195;-72
2023/07/03 11:15:40;;;;;;;8.52;4.65;;;;;;;24.39;28.34;99745.81;5126305;27;20206;-71
2023/07/03 11:18:25;;;;;;;11.02;4.80;;;;;;;24.28;28.90;99741.28;5128423;27;20215;-72
2023/07/03 11:21:13;;;;;;;11.23;5.70;;;;;;;24.15;29.55;99748.38;5132569;27;20195;-73
2023/07/03 11:23:52;;;;;;;8.55;5.10;;;;;;;24.17;30.29;99740.41;5132373;27;20324;-72
2023/07/03 11:26:33;;;;;;;9.23;5.28;;;;;;;24.10;30.79;99719.78;5132439;27;20202;-71
2023/07/03 11:29:07;;;;;;;6.88;5.07;;;;;;;24.20;30.63;99735.75;5125419;27;20207;-72
2023/07/03 11:31:38;;;;;;;13.95;5.28;;;;;;;24.17;29.75;99753.56;5128947;27;20200;-73
2023/07/03 11:34:08;;;;;;;7.90;4.80;;;;;;;24.06;30.53;99728.84;5133675;27;20203;-71
2023/07/03 11:36:42;;;;;;;9.88;5.30;;;;;;;24.02;30.62;99731.81;5128745;27;20205;-72
2023/07/03 11:39:21;;;;;;;7.28;5.35;;;;;;;24.00;30.51;99724.03;5132114;27;20247;-72
2023/07/03 11:41:55;;;;;;;8.90;5.00;;;;;;;23.96;30.22;99733.09;5135584;27;20600;-70
2023/07/03 11:44:33;;;;;;;10.45;5.35;;;;;;;23.94;31.15;99735.00;5129760;27;20253;-71
2023/07/03 11:47:05;;;;;;;8.13;5.00;;;;;;;23.90;31.77;99735.31;5124073;27;20559;-70